sensor_id;sensor_type;location;lat;lon;timestamp;temperature;humidity
21387;DHT22;10854;45.922;6.716;2023-03-02T00:01:55;1.30;95.50
21387;DHT22;10854;45.922;6.716;2023-03-02T00:04:37;1.30;95.80
21387;DHT22;10854;45.922;6.716;2023-03-02T00:07:09;1.30;95.80
21387;DHT22;10854;45.922;6.716;2023-03-02T00:09:39;1.30;95.90
21387;DHT22;10854;45.922;6.716;2023-03-02T00:12:08;1.30;96.00
21387;DHT22;10854;45.922;6.716;2023-03-02T00:14:38;1.30;96.10
21387;DHT22;10854;45.922;6.716;2023-03-02T00:17:06;1.20;96.30
21387;DHT22;10854;45.922;6.716;2023-03-02T00:19:38;1.10;96.40
21387;DHT22;10854;45.922;6.716;2023-03-02T00:22:07;1.10;96.50
21387;DHT22;10854;45.922;6.716;2023-03-02T00:24:37;1.00;96.80
21387;DHT22;10854;45.922;6.716;2023-03-02T00:27:05;0.90;97.10
21387;DHT22;10854;45.922;6.716;2023-03-02T00:29:34;0.80;96.70
21387;DHT22;10854;45.922;6.716;2023-03-02T00:32:02;0.70;96.70
21387;DHT22;10854;45.922;6.716;2023-03-02T00:34:31;0.60;96.90
21387;DHT22;10854;45.922;6.716;2023-03-02T00:37:02;0.50;97.20
21387;DHT22;10854;45.922;6.716;2023-03-02T00:39:31;0.40;97.70
21387;DHT22;10854;45.922;6.716;2023-03-02T00:42:01;0.40;98.40
21387;DHT22;10854;45.922;6.716;2023-03-02T00:44:31;0.30;99.10
21387;DHT22;10854;45.922;6.716;2023-03-02T00:47:00;0.30;99.70
21387;DHT22;10854;45.922;6.716;2023-03-02T00:49:28;0.20;99.90
21387;DHT22;10854;45.922;6.716;2023-03-02T00:51:56;0.20;99.90
21387;DHT22;10854;45.922;6.716;2023-03-02T00:54:24;0.20;99.90
21387;DHT22;10854;45.922;6.716;2023-03-02T00:56:53;0.10;99.90
21387;DHT22;10854;45.922;6.716;2023-03-02T00:59:21;0.10;99.90
21387;DHT22;10854;45.922;6.716;2023-03-02T01:01:58;0.00;99.90
21387;DHT22;10854;45.922;6.716;2023-03-02T01:04:35;0.00;99.90
21387;DHT22;10854;45.922;6.716;2023-03-02T01:07:08;-0.20;99.90
21387;DHT22;10854;45.922;6.716;2023-03-02T01:09:40;-0.20;99.90
21387;DHT22;10854;45.922;6.716;2023-03-02T01:12:09;-0.30;99.90
21387;DHT22;10854;45.922;6.716;2023-03-02T01:14:43;-0.30;99.90
21387;DHT22;10854;45.922;6.716;2023-03-02T01:17:12;-0.30;99.90
21387;DHT22;10854;45.922;6.716;2023-03-02T01:19:42;-0.30;99.90
21387;DHT22;10854;45.922;6.716;2023-03-02T01:22:10;-0.40;99.90
21387;DHT22;10854;45.922;6.716;2023-03-02T01:24:39;-0.40;99.90
21387;DHT22;10854;45.922;6.716;2023-03-02T01:27:08;-0.50;99.90
21387;DHT22;10854;45.922;6.716;2023-03-02T01:29:38;-0.50;99.90
21387;DHT22;10854;45.922;6.716;2023-03-02T01:32:07;-0.60;99.90
21387;DHT22;10854;45.922;6.716;2023-03-02T01:34:36;-0.60;99.90
21387;DHT22;10854;45.922;6.716;2023-03-02T01:37:04;-0.70;99.90
21387;DHT22;10854;45.922;6.716;2023-03-02T01:39:33;-0.80;99.90
21387;DHT22;10854;45.922;6.716;2023-03-02T01:42:01;-0.90;99.90
21387;DHT22;10854;45.922;6.716;2023-03-02T01:44:37;-1.00;99.90
21387;DHT22;10854;45.922;6.716;2023-03-02T01:47:22;-1.10;99.90
21387;DHT22;10854;45.922;6.716;2023-03-02T01:49:59;-1.10;99.90
21387;DHT22;10854;45.922;6.716;2023-03-02T01:52:31;-1.20;99.90
21387;DHT22;10854;45.922;6.716;2023-03-02T01:55:03;-1.30;99.90
21387;DHT22;10854;45.922;6.716;2023-03-02T01:57:37;-1.40;99.90
21387;DHT22;10854;45.922;6.716;2023-03-02T02:00:13;-1.40;99.90
21387;DHT22;10854;45.922;6.716;2023-03-02T02:02:43;-1.50;99.90
21387;DHT22;10854;45.922;6.716;2023-03-02T02:05:15;-1.50;99.90
21387;DHT22;10854;45.922;6.716;2023-03-02T02:07:45;-1.60;99.90
21387;DHT22;10854;45.922;6.716;2023-03-02T02:10:13;-1.60;99.90
21387;DHT22;10854;45.922;6.716;2023-03-02T02:12:42;-1.70;99.90
21387;DHT22;10854;45.922;6.716;2023-03-02T02:15:10;-1.70;99.90
21387;DHT22;10854;45.922;6.716;2023-03-02T02:17:39;-1.80;99.90
21387;DHT22;10854;45.922;6.716;2023-03-02T02:31:36;-1.90;99.90
21387;DHT22;10854;45.922;6.716;2023-03-02T02:34:19;-1.80;99.90
21387;DHT22;10854;45.922;6.716;2023-03-02T02:36:53;-1.80;99.90
21387;DHT22;10854;45.922;6.716;2023-03-02T02:39:27;-1.70;99.90
21387;DHT22;10854;45.922;6.716;2023-03-02T02:42:03;-1.70;99.90
21387;DHT22;10854;45.922;6.716;2023-03-02T02:44:32;-1.60;99.90
21387;DHT22;10854;45.922;6.716;2023-03-02T02:47:02;-1.60;99.90
21387;DHT22;10854;45.922;6.716;2023-03-02T02:49:34;-1.40;99.90
21387;DHT22;10854;45.922;6.716;2023-03-02T02:52:05;-1.40;99.90
21387;DHT22;10854;45.922;6.716;2023-03-02T02:54:36;-1.30;99.90
21387;DHT22;10854;45.922;6.716;2023-03-02T02:57:06;-1.30;99.90
21387;DHT22;10854;45.922;6.716;2023-03-02T02:59:58;-1.20;99.90
21387;DHT22;10854;45.922;6.716;2023-03-02T03:02:27;-1.20;99.90
21387;DHT22;10854;45.922;6.716;2023-03-02T03:04:56;-1.20;99.90
21387;DHT22;10854;45.922;6.716;2023-03-02T03:07:31;-1.20;99.90
21387;DHT22;10854;45.922;6.716;2023-03-02T03:10:24;-1.10;99.90
21387;DHT22;10854;45.922;6.716;2023-03-02T03:12:54;-1.10;99.90
21387;DHT22;10854;45.922;6.716;2023-03-02T03:15:23;-1.10;99.90
21387;DHT22;10854;45.922;6.716;2023-03-02T03:17:54;-1.10;99.90
21387;DHT22;10854;45.922;6.716;2023-03-02T03:20:24;-1.10;99.90
21387;DHT22;10854;45.922;6.716;2023-03-02T03:22:53;-1.10;99.90
21387;DHT22;10854;45.922;6.716;2023-03-02T03:25:24;-1.10;99.90
21387;DHT22;10854;45.922;6.716;2023-03-02T03:27:53;-1.00;99.90
21387;DHT22;10854;45.922;6.716;2023-03-02T03:30:22;-1.00;99.90
21387;DHT22;10854;45.922;6.716;2023-03-02T03:32:50;-1.10;99.90
21387;DHT22;10854;45.922;6.716;2023-03-02T03:35:19;-1.10;99.90
21387;DHT22;10854;45.922;6.716;2023-03-02T03:37:47;-1.10;99.90
21387;DHT22;10854;45.922;6.716;2023-03-02T03:40:16;-1.10;99.90
21387;DHT22;10854;45.922;6.716;2023-03-02T03:42:46;-1.20;99.90
21387;DHT22;10854;45.922;6.716;2023-03-02T03:45:14;-1.20;99.90
21387;DHT22;10854;45.922;6.716;2023-03-02T03:47:44;-1.20;99.90
21387;DHT22;10854;45.922;6.716;2023-03-02T03:50:13;-1.30;99.90
21387;DHT22;10854;45.922;6.716;2023-03-02T03:52:41;-1.30;99.90
21387;DHT22;10854;45.922;6.716;2023-03-02T03:55:10;-1.40;99.90
21387;DHT22;10854;45.922;6.716;2023-03-02T03:57:40;-1.50;99.90
21387;DHT22;10854;45.922;6.716;2023-03-02T04:00:11;-1.50;99.90
21387;DHT22;10854;45.922;6.716;2023-03-02T04:02:42;-1.50;99.90
21387;DHT22;10854;45.922;6.716;2023-03-02T04:05:10;-1.50;99.90
21387;DHT22;10854;45.922;6.716;2023-03-02T04:07:39;-1.60;99.90
21387;DHT22;10854;45.922;6.716;2023-03-02T04:10:09;-1.60;99.90
21387;DHT22;10854;45.922;6.716;2023-03-02T04:12:40;-1.70;99.90
21387;DHT22;10854;45.922;6.716;2023-03-02T04:15:13;-1.70;99.90
21387;DHT22;10854;45.922;6.716;2023-03-02T04:17:43;-1.70;99.90
21387;DHT22;10854;45.922;6.716;2023-03-02T04:20:13;-1.80;99.90
21387;DHT22;10854;45.922;6.716;2023-03-02T04:22:47;-1.80;99.90
21387;DHT22;10854;45.922;6.716;2023-03-02T04:25:20;-1.80;99.90
21387;DHT22;10854;45.922;6.716;2023-03-02T04:27:49;-1.80;99.90
21387;DHT22;10854;45.922;6.716;2023-03-02T04:30:22;-1.80;99.90
21387;DHT22;10854;45.922;6.716;2023-03-02T04:32:51;-1.80;99.90
21387;DHT22;10854;45.922;6.716;2023-03-02T04:35:19;-1.80;99.90
21387;DHT22;10854;45.922;6.716;2023-03-02T04:37:49;-1.80;99.90
21387;DHT22;10854;45.922;6.716;2023-03-02T04:40:19;-1.70;99.90
21387;DHT22;10854;45.922;6.716;2023-03-02T04:42:47;-1.70;99.90
21387;DHT22;10854;45.922;6.716;2023-03-02T04:45:17;-1.70;99.90
21387;DHT22;10854;45.922;6.716;2023-03-02T04:47:47;-1.60;99.90
21387;DHT22;10854;45.922;6.716;2023-03-02T04:50:15;-1.60;99.90
21387;DHT22;10854;45.922;6.716;2023-03-02T04:52:44;-1.70;99.90
21387;DHT22;10854;45.922;6.716;2023-03-02T04:55:20;-1.70;99.90
21387;DHT22;10854;45.922;6.716;2023-03-02T04:57:49;-1.70;99.90
21387;DHT22;10854;45.922;6.716;2023-03-02T05:00:18;-1.70;99.90
21387;DHT22;10854;45.922;6.716;2023-03-02T05:02:48;-1.80;99.90
21387;DHT22;10854;45.922;6.716;2023-03-02T05:05:22;-1.80;99.90
21387;DHT22;10854;45.922;6.716;2023-03-02T05:07:52;-1.80;99.90
21387;DHT22;10854;45.922;6.716;2023-03-02T05:10:21;-1.80;99.90
21387;DHT22;10854;45.922;6.716;2023-03-02T05:12:50;-1.80;99.90
21387;DHT22;10854;45.922;6.716;2023-03-02T05:15:27;-1.80;99.90
21387;DHT22;10854;45.922;6.716;2023-03-02T05:17:57;-1.90;99.90
21387;DHT22;10854;45.922;6.716;2023-03-02T05:20:28;-1.90;99.90
21387;DHT22;10854;45.922;6.716;2023-03-02T05:23:01;-1.90;99.90
21387;DHT22;10854;45.922;6.716;2023-03-02T05:25:32;-1.90;99.90
21387;DHT22;10854;45.922;6.716;2023-03-02T05:28:02;-1.90;99.90
21387;DHT22;10854;45.922;6.716;2023-03-02T05:30:33;-1.90;99.90
21387;DHT22;10854;45.922;6.716;2023-03-02T05:33:04;-1.90;99.90
21387;DHT22;10854;45.922;6.716;2023-03-02T05:35:33;-2.00;99.90
21387;DHT22;10854;45.922;6.716;2023-03-02T05:38:01;-2.00;99.90
21387;DHT22;10854;45.922;6.716;2023-03-02T05:40:31;-1.90;99.90
21387;DHT22;10854;45.922;6.716;2023-03-02T05:42:59;-1.90;99.90
21387;DHT22;10854;45.922;6.716;2023-03-02T05:45:31;-1.90;99.90
21387;DHT22;10854;45.922;6.716;2023-03-02T05:48:00;-1.80;99.90
21387;DHT22;10854;45.922;6.716;2023-03-02T05:50:29;-1.80;99.90
21387;DHT22;10854;45.922;6.716;2023-03-02T05:52:57;-1.80;99.90
21387;DHT22;10854;45.922;6.716;2023-03-02T05:55:27;-1.80;99.90
21387;DHT22;10854;45.922;6.716;2023-03-02T05:57:56;-1.80;99.90
21387;DHT22;10854;45.922;6.716;2023-03-02T06:00:24;-1.70;99.90
21387;DHT22;10854;45.922;6.716;2023-03-02T06:02:53;-1.70;99.90
21387;DHT22;10854;45.922;6.716;2023-03-02T06:05:22;-1.60;99.90
21387;DHT22;10854;45.922;6.716;2023-03-02T06:07:51;-1.60;99.90
21387;DHT22;10854;45.922;6.716;2023-03-02T06:10:21;-1.60;99.90
21387;DHT22;10854;45.922;6.716;2023-03-02T06:12:50;-1.50;99.90
21387;DHT22;10854;45.922;6.716;2023-03-02T06:15:19;-1.40;99.90
21387;DHT22;10854;45.922;6.716;2023-03-02T06:17:47;-1.40;99.90
21387;DHT22;10854;45.922;6.716;2023-03-02T06:20:19;-1.40;99.90
21387;DHT22;10854;45.922;6.716;2023-03-02T06:22:47;-1.30;99.90
21387;DHT22;10854;45.922;6.716;2023-03-02T06:25:21;-1.30;99.90
21387;DHT22;10854;45.922;6.716;2023-03-02T06:27:50;-1.40;99.90
21387;DHT22;10854;45.922;6.716;2023-03-02T06:30:22;-1.30;99.90
21387;DHT22;10854;45.922;6.716;2023-03-02T06:32:52;-1.20;99.90
21387;DHT22;10854;45.922;6.716;2023-03-02T06:35:20;-1.20;99.90
21387;DHT22;10854;45.922;6.716;2023-03-02T06:37:50;-1.10;99.90
21387;DHT22;10854;45.922;6.716;2023-03-02T06:40:19;-1.00;99.90
21387;DHT22;10854;45.922;6.716;2023-03-02T06:42:48;-1.00;99.90
21387;DHT22;10854;45.922;6.716;2023-03-02T06:45:17;-0.90;99.90
21387;DHT22;10854;45.922;6.716;2023-03-02T06:47:46;-0.80;99.90
21387;DHT22;10854;45.922;6.716;2023-03-02T06:50:14;-0.80;99.90
21387;DHT22;10854;45.922;6.716;2023-03-02T06:52:43;-0.70;99.90
21387;DHT22;10854;45.922;6.716;2023-03-02T06:55:11;-0.70;99.90
21387;DHT22;10854;45.922;6.716;2023-03-02T06:57:41;-0.60;99.90
21387;DHT22;10854;45.922;6.716;2023-03-02T07:00:11;-0.50;99.90
21387;DHT22;10854;45.922;6.716;2023-03-02T07:02:44;-0.50;99.90
21387;DHT22;10854;45.922;6.716;2023-03-02T07:05:13;-0.40;99.90
21387;DHT22;10854;45.922;6.716;2023-03-02T07:07:41;-0.30;99.90
21387;DHT22;10854;45.922;6.716;2023-03-02T07:10:12;-0.30;99.90
21387;DHT22;10854;45.922;6.716;2023-03-02T07:12:41;-0.20;99.90
21387;DHT22;10854;45.922;6.716;2023-03-02T07:15:10;-0.10;99.90
21387;DHT22;10854;45.922;6.716;2023-03-02T07:17:42;-0.10;99.90
21387;DHT22;10854;45.922;6.716;2023-03-02T07:20:14;0.00;99.90
21387;DHT22;10854;45.922;6.716;2023-03-02T07:22:56;0.10;99.90
21387;DHT22;10854;45.922;6.716;2023-03-02T07:25:25;0.20;99.90
21387;DHT22;10854;45.922;6.716;2023-03-02T07:27:53;0.30;99.90
21387;DHT22;10854;45.922;6.716;2023-03-02T07:30:21;0.40;99.90
21387;DHT22;10854;45.922;6.716;2023-03-02T07:32:50;0.50;99.90
21387;DHT22;10854;45.922;6.716;2023-03-02T07:35:19;0.70;99.90
21387;DHT22;10854;45.922;6.716;2023-03-02T07:37:47;0.80;99.90
21387;DHT22;10854;45.922;6.716;2023-03-02T07:40:16;0.90;99.90
21387;DHT22;10854;45.922;6.716;2023-03-02T07:42:44;1.10;99.90
21387;DHT22;10854;45.922;6.716;2023-03-02T07:45:14;1.20;99.90
21387;DHT22;10854;45.922;6.716;2023-03-02T07:47:43;1.30;99.90
21387;DHT22;10854;45.922;6.716;2023-03-02T07:50:12;1.40;99.90
21387;DHT22;10854;45.922;6.716;2023-03-02T07:52:41;1.50;99.90
21387;DHT22;10854;45.922;6.716;2023-03-02T07:55:09;1.60;99.90
21387;DHT22;10854;45.922;6.716;2023-03-02T07:57:38;1.70;99.90
21387;DHT22;10854;45.922;6.716;2023-03-02T08:00:07;1.80;99.90
21387;DHT22;10854;45.922;6.716;2023-03-02T08:02:35;1.90;99.90
21387;DHT22;10854;45.922;6.716;2023-03-02T08:05:04;2.00;99.90
21387;DHT22;10854;45.922;6.716;2023-03-02T08:07:33;2.10;99.90
21387;DHT22;10854;45.922;6.716;2023-03-02T08:10:02;2.10;99.90
21387;DHT22;10854;45.922;6.716;2023-03-02T08:12:30;2.20;99.90
21387;DHT22;10854;45.922;6.716;2023-03-02T08:15:00;2.30;99.90
21387;DHT22;10854;45.922;6.716;2023-03-02T08:17:31;2.30;99.90
21387;DHT22;10854;45.922;6.716;2023-03-02T08:20:00;2.30;99.90
21387;DHT22;10854;45.922;6.716;2023-03-02T08:22:28;2.40;99.90
21387;DHT22;10854;45.922;6.716;2023-03-02T08:24:57;2.40;99.90
21387;DHT22;10854;45.922;6.716;2023-03-02T08:27:25;2.50;99.90
21387;DHT22;10854;45.922;6.716;2023-03-02T08:29:55;2.50;99.90
21387;DHT22;10854;45.922;6.716;2023-03-02T08:32:23;2.50;99.90
21387;DHT22;10854;45.922;6.716;2023-03-02T08:34:53;2.60;99.90
21387;DHT22;10854;45.922;6.716;2023-03-02T08:37:21;2.70;99.90
21387;DHT22;10854;45.922;6.716;2023-03-02T08:39:49;2.70;99.90
21387;DHT22;10854;45.922;6.716;2023-03-02T08:42:18;2.80;99.90
21387;DHT22;10854;45.922;6.716;2023-03-02T08:44:46;2.90;99.90
21387;DHT22;10854;45.922;6.716;2023-03-02T08:47:15;3.00;99.80
21387;DHT22;10854;45.922;6.716;2023-03-02T08:49:43;3.10;98.10
21387;DHT22;10854;45.922;6.716;2023-03-02T08:52:14;3.10;96.10
21387;DHT22;10854;45.922;6.716;2023-03-02T08:54:43;3.10;95.30
21387;DHT22;10854;45.922;6.716;2023-03-02T08:57:11;3.10;95.40
21387;DHT22;10854;45.922;6.716;2023-03-02T08:59:40;3.10;94.80
21387;DHT22;10854;45.922;6.716;2023-03-02T09:02:10;3.10;94.70
21387;DHT22;10854;45.922;6.716;2023-03-02T09:04:39;3.20;94.60
21387;DHT22;10854;45.922;6.716;2023-03-02T09:07:08;3.30;94.70
21387;DHT22;10854;45.922;6.716;2023-03-02T09:09:38;3.40;94.30
21387;DHT22;10854;45.922;6.716;2023-03-02T09:12:06;3.60;93.70
21387;DHT22;10854;45.922;6.716;2023-03-02T09:14:35;3.70;93.20
21387;DHT22;10854;45.922;6.716;2023-03-02T09:17:03;3.80;92.80
21387;DHT22;10854;45.922;6.716;2023-03-02T09:19:33;4.00;92.80
21387;DHT22;10854;45.922;6.716;2023-03-02T09:22:10;4.30;92.30
21387;DHT22;10854;45.922;6.716;2023-03-02T09:24:39;4.50;91.60
21387;DHT22;10854;45.922;6.716;2023-03-02T09:27:07;4.70;90.90
21387;DHT22;10854;45.922;6.716;2023-03-02T09:29:36;4.90;90.30
21387;DHT22;10854;45.922;6.716;2023-03-02T09:32:04;5.10;89.70
21387;DHT22;10854;45.922;6.716;2023-03-02T09:34:33;5.40;87.00
21387;DHT22;10854;45.922;6.716;2023-03-02T09:37:03;5.40;85.00
21387;DHT22;10854;45.922;6.716;2023-03-02T09:39:32;5.50;84.30
21387;DHT22;10854;45.922;6.716;2023-03-02T09:42:38;5.70;84.30
21387;DHT22;10854;45.922;6.716;2023-03-02T09:45:50;6.00;82.90
21387;DHT22;10854;45.922;6.716;2023-03-02T09:48:34;6.30;78.80
21387;DHT22;10854;45.922;6.716;2023-03-02T09:51:20;6.40;77.60
21387;DHT22;10854;45.922;6.716;2023-03-02T09:54:14;6.50;77.70
21387;DHT22;10854;45.922;6.716;2023-03-02T09:56:48;7.00;78.00
21387;DHT22;10854;45.922;6.716;2023-03-02T10:04:48;9.30;71.60
21387;DHT22;10854;45.922;6.716;2023-03-02T10:07:25;9.90;70.60
21387;DHT22;10854;45.922;6.716;2023-03-02T10:09:58;10.30;66.80
21387;DHT22;10854;45.922;6.716;2023-03-02T10:13:25;10.10;63.50
21387;DHT22;10854;45.922;6.716;2023-03-02T10:15:55;9.70;64.20
21387;DHT22;10854;45.922;6.716;2023-03-02T10:18:42;9.30;64.00
21387;DHT22;10854;45.922;6.716;2023-03-02T10:21:34;8.80;65.00
21387;DHT22;10854;45.922;6.716;2023-03-02T10:24:23;8.30;65.20
21387;DHT22;10854;45.922;6.716;2023-03-02T10:27:09;8.10;66.40
21387;DHT22;10854;45.922;6.716;2023-03-02T10:30:05;7.90;66.60
21387;DHT22;10854;45.922;6.716;2023-03-02T10:32:41;7.60;66.70
21387;DHT22;10854;45.922;6.716;2023-03-02T10:35:23;7.20;67.60
21387;DHT22;10854;45.922;6.716;2023-03-02T10:38:00;6.90;67.90
21387;DHT22;10854;45.922;6.716;2023-03-02T10:40:40;6.70;68.90
21387;DHT22;10854;45.922;6.716;2023-03-02T10:43:41;6.50;69.50
21387;DHT22;10854;45.922;6.716;2023-03-02T10:46:12;6.50;70.20
21387;DHT22;10854;45.922;6.716;2023-03-02T10:48:53;6.50;70.50
21387;DHT22;10854;45.922;6.716;2023-03-02T10:51:31;6.50;70.60
21387;DHT22;10854;45.922;6.716;2023-03-02T10:54:13;6.40;70.20
21387;DHT22;10854;45.922;6.716;2023-03-02T10:56:46;6.20;70.90
21387;DHT22;10854;45.922;6.716;2023-03-02T11:02:02;6.30;71.60
21387;DHT22;10854;45.922;6.716;2023-03-02T11:04:30;6.50;71.80
21387;DHT22;10854;45.922;6.716;2023-03-02T11:07:17;6.70;71.30
21387;DHT22;10854;45.922;6.716;2023-03-02T11:10:00;6.80;71.00
21387;DHT22;10854;45.922;6.716;2023-03-02T11:12:29;6.90;71.00
21387;DHT22;10854;45.922;6.716;2023-03-02T11:15:23;7.30;71.10
21387;DHT22;10854;45.922;6.716;2023-03-02T11:20:37;8.70;70.10
21387;DHT22;10854;45.922;6.716;2023-03-02T11:23:22;9.40;68.80
21387;DHT22;10854;45.922;6.716;2023-03-02T11:25:59;10.10;64.10
21387;DHT22;10854;45.922;6.716;2023-03-02T11:28:37;10.50;62.80
21387;DHT22;10854;45.922;6.716;2023-03-02T11:37:23;12.10;59.90
21387;DHT22;10854;45.922;6.716;2023-03-02T11:42:41;12.60;56.80
21387;DHT22;10854;45.922;6.716;2023-03-02T11:45:20;12.90;56.90
21387;DHT22;10854;45.922;6.716;2023-03-02T11:47:58;13.10;56.00
21387;DHT22;10854;45.922;6.716;2023-03-02T11:50:33;13.30;56.00
21387;DHT22;10854;45.922;6.716;2023-03-02T11:53:08;13.60;54.50
21387;DHT22;10854;45.922;6.716;2023-03-02T11:55:46;13.60;52.80
21387;DHT22;10854;45.922;6.716;2023-03-02T11:58:22;13.70;53.60
21387;DHT22;10854;45.922;6.716;2023-03-02T12:00:51;13.90;52.90
21387;DHT22;10854;45.922;6.716;2023-03-02T12:03:23;14.00;51.90
21387;DHT22;10854;45.922;6.716;2023-03-02T12:06:07;13.90;51.70
21387;DHT22;10854;45.922;6.716;2023-03-02T12:09:06;13.70;50.70
21387;DHT22;10854;45.922;6.716;2023-03-02T12:11:37;13.40;51.40
21387;DHT22;10854;45.922;6.716;2023-03-02T12:14:26;13.10;52.00
21387;DHT22;10854;45.922;6.716;2023-03-02T12:17:04;13.40;52.60
21387;DHT22;10854;45.922;6.716;2023-03-02T12:19:42;13.70;52.50
21387;DHT22;10854;45.922;6.716;2023-03-02T12:22:12;14.20;52.00
21387;DHT22;10854;45.922;6.716;2023-03-02T12:24:44;14.30;49.30
21387;DHT22;10854;45.922;6.716;2023-03-02T12:29:51;14.50;49.40
21387;DHT22;10854;45.922;6.716;2023-03-02T12:32:30;14.40;49.50
21387;DHT22;10854;45.922;6.716;2023-03-02T12:35:11;14.60;50.00
21387;DHT22;10854;45.922;6.716;2023-03-02T12:40:39;15.10;49.10
21387;DHT22;10854;45.922;6.716;2023-03-02T12:49:10;14.80;48.10
21387;DHT22;10854;45.922;6.716;2023-03-02T12:54:25;15.40;49.00
21387;DHT22;10854;45.922;6.716;2023-03-02T12:57:27;15.90;48.40
21387;DHT22;10854;45.922;6.716;2023-03-02T12:59:57;16.00;47.50
21387;DHT22;10854;45.922;6.716;2023-03-02T13:05:06;16.10;47.10
21387;DHT22;10854;45.922;6.716;2023-03-02T13:07:37;16.20;46.80
21387;DHT22;10854;45.922;6.716;2023-03-02T13:10:21;16.30;47.10
21387;DHT22;10854;45.922;6.716;2023-03-02T13:12:53;16.50;47.10
21387;DHT22;10854;45.922;6.716;2023-03-02T13:15:21;16.60;46.40
21387;DHT22;10854;45.922;6.716;2023-03-02T13:17:56;16.60;45.00
21387;DHT22;10854;45.922;6.716;2023-03-02T13:20:27;16.10;45.50
21387;DHT22;10854;45.922;6.716;2023-03-02T13:22:56;15.90;46.20
21387;DHT22;10854;45.922;6.716;2023-03-02T13:25:29;15.80;46.80
21387;DHT22;10854;45.922;6.716;2023-03-02T13:27:59;15.90;46.90
21387;DHT22;10854;45.922;6.716;2023-03-02T13:30:32;16.10;47.00
21387;DHT22;10854;45.922;6.716;2023-03-02T13:33:04;16.60;46.70
21387;DHT22;10854;45.922;6.716;2023-03-02T13:35:35;16.60;45.80
21387;DHT22;10854;45.922;6.716;2023-03-02T13:38:16;16.70;46.20
21387;DHT22;10854;45.922;6.716;2023-03-02T13:40:47;16.90;45.80
21387;DHT22;10854;45.922;6.716;2023-03-02T13:43:33;17.00;45.50
21387;DHT22;10854;45.922;6.716;2023-03-02T13:48:39;16.10;45.90
21387;DHT22;10854;45.922;6.716;2023-03-02T13:51:16;15.70;46.60
21387;DHT22;10854;45.922;6.716;2023-03-02T13:56:19;15.30;47.60
21387;DHT22;10854;45.922;6.716;2023-03-02T13:58:53;15.30;47.80
21387;DHT22;10854;45.922;6.716;2023-03-02T14:01:21;15.20;47.40
21387;DHT22;10854;45.922;6.716;2023-03-02T14:03:53;15.10;47.60
21387;DHT22;10854;45.922;6.716;2023-03-02T14:06:23;14.90;47.50
21387;DHT22;10854;45.922;6.716;2023-03-02T14:08:52;14.40;47.90
21387;DHT22;10854;45.922;6.716;2023-03-02T14:11:21;14.10;48.50
21387;DHT22;10854;45.922;6.716;2023-03-02T14:13:54;13.60;48.60
21387;DHT22;10854;45.922;6.716;2023-03-02T14:16:22;13.30;49.40
21387;DHT22;10854;45.922;6.716;2023-03-02T14:18:53;13.20;49.90
21387;DHT22;10854;45.922;6.716;2023-03-02T14:21:24;13.10;50.30
21387;DHT22;10854;45.922;6.716;2023-03-02T14:23:53;13.10;50.20
21387;DHT22;10854;45.922;6.716;2023-03-02T14:26:40;13.00;50.20
21387;DHT22;10854;45.922;6.716;2023-03-02T14:29:26;13.00;50.20
21387;DHT22;10854;45.922;6.716;2023-03-02T14:31:57;13.00;50.20
21387;DHT22;10854;45.922;6.716;2023-03-02T14:34:27;13.10;50.50
21387;DHT22;10854;45.922;6.716;2023-03-02T14:36:58;13.20;50.50
21387;DHT22;10854;45.922;6.716;2023-03-02T14:39:34;13.30;50.40
21387;DHT22;10854;45.922;6.716;2023-03-02T14:42:05;13.40;50.60
21387;DHT22;10854;45.922;6.716;2023-03-02T14:44:35;13.20;50.20
21387;DHT22;10854;45.922;6.716;2023-03-02T14:47:04;13.10;50.30
21387;DHT22;10854;45.922;6.716;2023-03-02T14:49:34;13.10;50.30
21387;DHT22;10854;45.922;6.716;2023-03-02T14:55:00;13.40;50.30
21387;DHT22;10854;45.922;6.716;2023-03-02T14:57:34;13.80;50.00
21387;DHT22;10854;45.922;6.716;2023-03-02T15:00:03;14.10;49.50
21387;DHT22;10854;45.922;6.716;2023-03-02T15:02:32;14.30;48.80
21387;DHT22;10854;45.922;6.716;2023-03-02T15:05:01;14.50;48.40
21387;DHT22;10854;45.922;6.716;2023-03-02T15:07:29;14.70;47.90
21387;DHT22;10854;45.922;6.716;2023-03-02T15:09:57;14.60;47.70
21387;DHT22;10854;45.922;6.716;2023-03-02T15:12:27;14.40;47.90
21387;DHT22;10854;45.922;6.716;2023-03-02T15:14:55;14.10;48.00
21387;DHT22;10854;45.922;6.716;2023-03-02T15:17:25;13.60;48.70
21387;DHT22;10854;45.922;6.716;2023-03-02T15:19:55;13.10;49.30
21387;DHT22;10854;45.922;6.716;2023-03-02T15:22:25;12.70;50.00
21387;DHT22;10854;45.922;6.716;2023-03-02T15:24:54;12.40;50.40
21387;DHT22;10854;45.922;6.716;2023-03-02T15:27:23;12.40;50.80
21387;DHT22;10854;45.922;6.716;2023-03-02T15:29:51;12.50;50.60
21387;DHT22;10854;45.922;6.716;2023-03-02T15:32:22;12.60;50.50
21387;DHT22;10854;45.922;6.716;2023-03-02T15:34:50;12.60;50.50
21387;DHT22;10854;45.922;6.716;2023-03-02T15:37:19;12.60;50.60
21387;DHT22;10854;45.922;6.716;2023-03-02T15:39:52;12.70;50.80
21387;DHT22;10854;45.922;6.716;2023-03-02T15:42:22;13.10;50.50
21387;DHT22;10854;45.922;6.716;2023-03-02T15:44:51;13.40;50.10
21387;DHT22;10854;45.922;6.716;2023-03-02T15:47:20;13.70;49.60
21387;DHT22;10854;45.922;6.716;2023-03-02T15:49:48;13.80;49.30
21387;DHT22;10854;45.922;6.716;2023-03-02T15:52:17;13.80;49.20
21387;DHT22;10854;45.922;6.716;2023-03-02T15:54:47;13.50;49.10
21387;DHT22;10854;45.922;6.716;2023-03-02T15:57:16;13.20;49.50
21387;DHT22;10854;45.922;6.716;2023-03-02T15:59:44;12.80;49.70
21387;DHT22;10854;45.922;6.716;2023-03-02T16:02:13;12.30;50.10
21387;DHT22;10854;45.922;6.716;2023-03-02T16:04:42;11.90;51.00
21387;DHT22;10854;45.922;6.716;2023-03-02T16:07:10;11.50;51.60
21387;DHT22;10854;45.922;6.716;2023-03-02T16:09:39;11.20;52.40
21387;DHT22;10854;45.922;6.716;2023-03-02T16:12:07;10.90;52.90
21387;DHT22;10854;45.922;6.716;2023-03-02T16:14:36;10.60;53.40
21387;DHT22;10854;45.922;6.716;2023-03-02T16:17:04;10.30;53.90
21387;DHT22;10854;45.922;6.716;2023-03-02T16:19:32;10.00;54.30
21387;DHT22;10854;45.922;6.716;2023-03-02T16:22:01;9.80;55.80
21387;DHT22;10854;45.922;6.716;2023-03-02T16:24:29;9.60;55.90
21387;DHT22;10854;45.922;6.716;2023-03-02T16:26:59;9.40;56.60
21387;DHT22;10854;45.922;6.716;2023-03-02T16:29:28;9.30;57.00
21387;DHT22;10854;45.922;6.716;2023-03-02T16:31:58;9.10;57.30
21387;DHT22;10854;45.922;6.716;2023-03-02T16:34:26;9.10;57.70
21387;DHT22;10854;45.922;6.716;2023-03-02T16:36:55;8.90;57.80
21387;DHT22;10854;45.922;6.716;2023-03-02T16:39:24;8.80;58.10
21387;DHT22;10854;45.922;6.716;2023-03-02T16:41:54;8.70;58.40
21387;DHT22;10854;45.922;6.716;2023-03-02T16:44:22;8.60;58.60
21387;DHT22;10854;45.922;6.716;2023-03-02T16:46:52;8.50;58.80
21387;DHT22;10854;45.922;6.716;2023-03-02T16:49:23;8.40;59.10
21387;DHT22;10854;45.922;6.716;2023-03-02T16:51:56;8.30;59.40
21387;DHT22;10854;45.922;6.716;2023-03-02T16:54:25;8.20;59.70
21387;DHT22;10854;45.922;6.716;2023-03-02T16:56:54;8.00;60.10
21387;DHT22;10854;45.922;6.716;2023-03-02T16:59:22;8.00;60.70
21387;DHT22;10854;45.922;6.716;2023-03-02T17:01:51;7.80;61.00